sensor_id;sensor_type;location;lat;lon;timestamp;pressure;altitude;pressure_sealevel;temperature;humidity
46782;BME280;32541;46.298;11.506;2023-03-25T00:00:19;88943.47;;;9.03;76.11
46782;BME280;32541;46.298;11.506;2023-03-25T00:02:50;88930.59;;;9.06;76.14
46782;BME280;32541;46.298;11.506;2023-03-25T00:05:18;88939.28;;;9.02;76.05
46782;BME280;32541;46.298;11.506;2023-03-25T00:07:46;88939.00;;;8.98;75.95
46782;BME280;32541;46.298;11.506;2023-03-25T00:10:13;88935.22;;;9.03;76.32
46782;BME280;32541;46.298;11.506;2023-03-25T00:12:39;88935.00;;;8.89;76.33
46782;BME280;32541;46.298;11.506;2023-03-25T00:15:06;88928.28;;;8.81;76.86
46782;BME280;32541;46.298;11.506;2023-03-25T00:17:32;88909.66;;;8.79;77.48
46782;BME280;32541;46.298;11.506;2023-03-25T00:19:58;88904.50;;;8.74;77.19
46782;BME280;32541;46.298;11.506;2023-03-25T00:22:25;88910.97;;;8.78;76.97
46782;BME280;32541;46.298;11.506;2023-03-25T00:24:51;88912.06;;;8.85;77.34
46782;BME280;32541;46.298;11.506;2023-03-25T00:27:16;88909.56;;;8.99;76.90
46782;BME280;32541;46.298;11.506;2023-03-25T00:29:43;88914.25;;;8.86;76.87
46782;BME280;32541;46.298;11.506;2023-03-25T00:32:09;88911.38;;;8.84;77.17
46782;BME280;32541;46.298;11.506;2023-03-25T00:34:35;88912.00;;;8.73;78.39
46782;BME280;32541;46.298;11.506;2023-03-25T00:37:07;88910.69;;;8.74;77.77
46782;BME280;32541;46.298;11.506;2023-03-25T00:39:33;88908.31;;;8.90;75.98
46782;BME280;32541;46.298;11.506;2023-03-25T00:41:59;88903.66;;;9.02;76.14
46782;BME280;32541;46.298;11.506;2023-03-25T00:44:26;88898.16;;;9.02;75.41
46782;BME280;32541;46.298;11.506;2023-03-25T00:46:52;88882.28;;;9.01;75.25
46782;BME280;32541;46.298;11.506;2023-03-25T00:49:17;88880.53;;;8.74;76.45
46782;BME280;32541;46.298;11.506;2023-03-25T00:51:42;88877.09;;;8.74;76.81
46782;BME280;32541;46.298;11.506;2023-03-25T00:54:09;88883.88;;;8.73;77.52
46782;BME280;32541;46.298;11.506;2023-03-25T00:56:36;88872.44;;;8.76;77.39
46782;BME280;32541;46.298;11.506;2023-03-25T00:59:01;88874.53;;;8.66;77.44
46782;BME280;32541;46.298;11.506;2023-03-25T01:01:27;88873.69;;;8.64;77.70
46782;BME280;32541;46.298;11.506;2023-03-25T01:03:55;88872.69;;;8.59;79.40
46782;BME280;32541;46.298;11.506;2023-03-25T01:06:33;88872.41;;;8.55;79.86
46782;BME280;32541;46.298;11.506;2023-03-25T01:09:00;88869.84;;;8.48;79.53
46782;BME280;32541;46.298;11.506;2023-03-25T01:11:28;88873.44;;;8.50;79.20
46782;BME280;32541;46.298;11.506;2023-03-25T01:13:55;88872.91;;;8.73;78.24
46782;BME280;32541;46.298;11.506;2023-03-25T01:16:22;88867.06;;;8.57;78.50
46782;BME280;32541;46.298;11.506;2023-03-25T01:18:47;88865.63;;;8.56;78.39
46782;BME280;32541;46.298;11.506;2023-03-25T01:21:13;88873.88;;;8.47;79.19
46782;BME280;32541;46.298;11.506;2023-03-25T01:23:39;88869.84;;;8.48;78.92
46782;BME280;32541;46.298;11.506;2023-03-25T01:26:04;88866.97;;;8.46;79.43
46782;BME280;32541;46.298;11.506;2023-03-25T01:28:30;88862.06;;;8.44;79.31
46782;BME280;32541;46.298;11.506;2023-03-25T01:31:03;88855.63;;;8.40;79.45
46782;BME280;32541;46.298;11.506;2023-03-25T01:33:29;88854.75;;;8.37;79.06
46782;BME280;32541;46.298;11.506;2023-03-25T01:35:54;88862.09;;;8.34;79.57
46782;BME280;32541;46.298;11.506;2023-03-25T01:38:20;88858.78;;;8.36;79.71
46782;BME280;32541;46.298;11.506;2023-03-25T01:40:46;88855.66;;;8.30;79.98
46782;BME280;32541;46.298;11.506;2023-03-25T01:43:12;88852.59;;;8.26;80.51
46782;BME280;32541;46.298;11.506;2023-03-25T01:45:39;88848.28;;;8.23;80.44
46782;BME280;32541;46.298;11.506;2023-03-25T01:48:08;88847.59;;;8.22;80.32
46782;BME280;32541;46.298;11.506;2023-03-25T01:50:43;88847.44;;;8.30;80.26
46782;BME280;32541;46.298;11.506;2023-03-25T01:53:09;88846.72;;;8.29;79.92
46782;BME280;32541;46.298;11.506;2023-03-25T01:55:36;88843.09;;;8.36;80.18
46782;BME280;32541;46.298;11.506;2023-03-25T01:58:04;88840.06;;;8.32;80.21
46782;BME280;32541;46.298;11.506;2023-03-25T02:00:31;88840.66;;;8.31;80.78
46782;BME280;32541;46.298;11.506;2023-03-25T02:02:58;88828.34;;;8.42;80.38
46782;BME280;32541;46.298;11.506;2023-03-25T02:05:35;88825.53;;;8.30;80.31
46782;BME280;32541;46.298;11.506;2023-03-25T02:08:04;88834.31;;;8.28;80.88
46782;BME280;32541;46.298;11.506;2023-03-25T02:10:30;88833.16;;;8.22;81.51
46782;BME280;32541;46.298;11.506;2023-03-25T02:12:56;88830.56;;;8.24;81.68
46782;BME280;32541;46.298;11.506;2023-03-25T02:15:22;88831.72;;;8.21;80.96
46782;BME280;32541;46.298;11.506;2023-03-25T02:21:10;88824.50;;;8.25;81.39
46782;BME280;32541;46.298;11.506;2023-03-25T02:29:30;88825.81;;;8.24;81.16
46782;BME280;32541;46.298;11.506;2023-03-25T02:38:03;88824.09;;;8.19;82.23
46782;BME280;32541;46.298;11.506;2023-03-25T02:40:39;88829.59;;;8.19;81.83
46782;BME280;32541;46.298;11.506;2023-03-25T02:45:43;88821.66;;;8.14;82.49
46782;BME280;32541;46.298;11.506;2023-03-25T02:48:11;88819.03;;;8.25;82.46
46782;BME280;32541;46.298;11.506;2023-03-25T02:50:47;88814.53;;;8.40;81.31
46782;BME280;32541;46.298;11.506;2023-03-25T02:53:25;88819.47;;;8.22;82.15
46782;BME280;32541;46.298;11.506;2023-03-25T02:55:52;88814.75;;;8.13;82.60
46782;BME280;32541;46.298;11.506;2023-03-25T02:58:20;88811.41;;;8.14;82.82
46782;BME280;32541;46.298;11.506;2023-03-25T03:00:47;88814.47;;;8.09;83.01
46782;BME280;32541;46.298;11.506;2023-03-25T03:03:13;88810.56;;;8.12;83.27
46782;BME280;32541;46.298;11.506;2023-03-25T03:05:42;88813.31;;;8.12;83.54
46782;BME280;32541;46.298;11.506;2023-03-25T03:11:16;88803.53;;;8.09;83.64
46782;BME280;32541;46.298;11.506;2023-03-25T03:19:23;88800.56;;;7.95;83.83
46782;BME280;32541;46.298;11.506;2023-03-25T03:22:03;88807.31;;;7.94;83.61
46782;BME280;32541;46.298;11.506;2023-03-25T03:27:42;88798.94;;;8.02;83.61
46782;BME280;32541;46.298;11.506;2023-03-25T03:30:21;88807.00;;;8.00;84.24
46782;BME280;32541;46.298;11.506;2023-03-25T03:35:25;88823.19;;;7.86;85.65
46782;BME280;32541;46.298;11.506;2023-03-25T03:37:58;88822.06;;;7.79;85.38
46782;BME280;32541;46.298;11.506;2023-03-25T03:40:27;88826.53;;;7.75;86.29
46782;BME280;32541;46.298;11.506;2023-03-25T03:45:23;88824.78;;;7.79;85.67
46782;BME280;32541;46.298;11.506;2023-03-25T03:47:53;88822.66;;;7.68;86.40
46782;BME280;32541;46.298;11.506;2023-03-25T03:50:25;88828.97;;;7.80;86.38
46782;BME280;32541;46.298;11.506;2023-03-25T03:53:07;88824.09;;;7.69;86.91
46782;BME280;32541;46.298;11.506;2023-03-25T03:58:11;88839.13;;;7.30;89.43
46782;BME280;32541;46.298;11.506;2023-03-25T04:00:58;88841.00;;;7.08;91.16
46782;BME280;32541;46.298;11.506;2023-03-25T04:03:33;88827.88;;;7.16;90.75
46782;BME280;32541;46.298;11.506;2023-03-25T04:06:10;88827.59;;;7.22;89.86
46782;BME280;32541;46.298;11.506;2023-03-25T04:08:48;88831.91;;;7.25;89.81
46782;BME280;32541;46.298;11.506;2023-03-25T04:11:21;88838.41;;;7.30;89.38
46782;BME280;32541;46.298;11.506;2023-03-25T04:13:48;88839.56;;;7.36;89.02
46782;BME280;32541;46.298;11.506;2023-03-25T04:16:16;88843.16;;;7.39;88.67
46782;BME280;32541;46.298;11.506;2023-03-25T04:18:41;88842.00;;;7.42;89.01
46782;BME280;32541;46.298;11.506;2023-03-25T04:21:08;88846.59;;;7.39;88.93
46782;BME280;32541;46.298;11.506;2023-03-25T04:23:34;88842.13;;;7.44;87.91
46782;BME280;32541;46.298;11.506;2023-03-25T04:26:02;88842.72;;;7.42;88.36
46782;BME280;32541;46.298;11.506;2023-03-25T04:28:28;88853.78;;;7.44;88.51
46782;BME280;32541;46.298;11.506;2023-03-25T04:30:53;88849.03;;;7.45;88.06
46782;BME280;32541;46.298;11.506;2023-03-25T04:33:25;88849.31;;;7.58;88.12
46782;BME280;32541;46.298;11.506;2023-03-25T04:35:51;88847.00;;;7.55;88.42
46782;BME280;32541;46.298;11.506;2023-03-25T04:38:17;88857.81;;;7.53;88.33
46782;BME280;32541;46.298;11.506;2023-03-25T04:40:46;88859.09;;;7.52;88.78
46782;BME280;32541;46.298;11.506;2023-03-25T04:43:15;88862.56;;;7.52;87.69
46782;BME280;32541;46.298;11.506;2023-03-25T04:45:42;88865.28;;;7.52;88.08
46782;BME280;32541;46.298;11.506;2023-03-25T04:48:20;88860.13;;;7.56;87.77
46782;BME280;32541;46.298;11.506;2023-03-25T04:50:46;88866.88;;;7.55;88.07
46782;BME280;32541;46.298;11.506;2023-03-25T04:53:12;88854.66;;;7.56;88.48
46782;BME280;32541;46.298;11.506;2023-03-25T04:55:38;88847.16;;;7.57;88.62
46782;BME280;32541;46.298;11.506;2023-03-25T04:58:12;88837.94;;;7.52;88.35
46782;BME280;32541;46.298;11.506;2023-03-25T05:00:37;88845.28;;;7.59;87.94
46782;BME280;32541;46.298;11.506;2023-03-25T05:03:03;88852.63;;;7.57;88.11
46782;BME280;32541;46.298;11.506;2023-03-25T05:05:28;88850.34;;;7.53;88.41
46782;BME280;32541;46.298;11.506;2023-03-25T05:07:54;88848.44;;;7.56;89.07
46782;BME280;32541;46.298;11.506;2023-03-25T05:10:23;88857.81;;;7.53;89.28
46782;BME280;32541;46.298;11.506;2023-03-25T05:12:50;88862.84;;;7.37;89.27
46782;BME280;32541;46.298;11.506;2023-03-25T05:15:21;88861.69;;;7.40;88.89
46782;BME280;32541;46.298;11.506;2023-03-25T05:17:47;88871.06;;;7.27;90.12
46782;BME280;32541;46.298;11.506;2023-03-25T05:20:12;88869.78;;;7.28;90.08
46782;BME280;32541;46.298;11.506;2023-03-25T05:22:39;88874.38;;;7.26;90.41
46782;BME280;32541;46.298;11.506;2023-03-25T05:25:07;88875.81;;;7.27;90.07
46782;BME280;32541;46.298;11.506;2023-03-25T05:27:34;88883.44;;;7.38;90.08
46782;BME280;32541;46.298;11.506;2023-03-25T05:30:00;88885.31;;;7.45;89.60
46782;BME280;32541;46.298;11.506;2023-03-25T05:32:27;88884.16;;;7.29;89.48
46782;BME280;32541;46.298;11.506;2023-03-25T05:34:55;88894.25;;;7.26;90.27
46782;BME280;32541;46.298;11.506;2023-03-25T05:37:21;88879.41;;;7.20;90.21
46782;BME280;32541;46.298;11.506;2023-03-25T05:39:46;88890.34;;;7.20;90.66
46782;BME280;32541;46.298;11.506;2023-03-25T05:42:12;88888.03;;;7.16;90.69
46782;BME280;32541;46.298;11.506;2023-03-25T05:44:38;88888.19;;;7.09;91.25
46782;BME280;32541;46.298;11.506;2023-03-25T05:47:11;88889.34;;;7.06;91.73
46782;BME280;32541;46.298;11.506;2023-03-25T05:49:36;88902.56;;;7.19;91.69
46782;BME280;32541;46.298;11.506;2023-03-25T05:52:02;88895.38;;;7.23;90.90
46782;BME280;32541;46.298;11.506;2023-03-25T05:54:27;88896.13;;;7.24;90.28
46782;BME280;32541;46.298;11.506;2023-03-25T05:56:53;88892.06;;;7.25;90.31
46782;BME280;32541;46.298;11.506;2023-03-25T05:59:18;88892.22;;;7.37;92.79
46782;BME280;32541;46.298;11.506;2023-03-25T06:01:44;88905.19;;;7.36;90.53
46782;BME280;32541;46.298;11.506;2023-03-25T06:04:11;88911.22;;;7.35;90.43
46782;BME280;32541;46.298;11.506;2023-03-25T06:06:38;88907.94;;;7.36;90.46
46782;BME280;32541;46.298;11.506;2023-03-25T06:09:04;88893.25;;;7.41;89.83
46782;BME280;32541;46.298;11.506;2023-03-25T06:11:30;88887.47;;;7.47;90.47
46782;BME280;32541;46.298;11.506;2023-03-25T06:13:55;88892.38;;;7.48;89.32
46782;BME280;32541;46.298;11.506;2023-03-25T06:16:23;88903.16;;;7.46;89.65
46782;BME280;32541;46.298;11.506;2023-03-25T06:18:52;88897.69;;;7.56;88.60
46782;BME280;32541;46.298;11.506;2023-03-25T06:21:24;88907.34;;;7.57;89.74
46782;BME280;32541;46.298;11.506;2023-03-25T06:23:51;88899.72;;;7.74;88.33
46782;BME280;32541;46.298;11.506;2023-03-25T06:26:19;88897.41;;;7.61;89.34
46782;BME280;32541;46.298;11.506;2023-03-25T06:28:46;88903.44;;;7.41;89.94
46782;BME280;32541;46.298;11.506;2023-03-25T06:31:20;88899.25;;;7.11;92.40
46782;BME280;32541;46.298;11.506;2023-03-25T06:33:48;88906.44;;;6.97;94.00
46782;BME280;32541;46.298;11.506;2023-03-25T06:36:15;88897.78;;;6.91;95.31
46782;BME280;32541;46.298;11.506;2023-03-25T06:38:47;88900.78;;;6.76;95.88
46782;BME280;32541;46.298;11.506;2023-03-25T06:41:14;88901.06;;;6.70;96.05
46782;BME280;32541;46.298;11.506;2023-03-25T06:43:39;88900.63;;;6.83;95.93
46782;BME280;32541;46.298;11.506;2023-03-25T06:46:05;88903.41;;;7.02;93.87
46782;BME280;32541;46.298;11.506;2023-03-25T06:48:31;88898.69;;;7.03;94.27
46782;BME280;32541;46.298;11.506;2023-03-25T06:50:57;88900.81;;;7.04;94.61
46782;BME280;32541;46.298;11.506;2023-03-25T06:53:22;88906.13;;;6.93;95.12
46782;BME280;32541;46.298;11.506;2023-03-25T06:55:47;88904.00;;;7.10;93.41
46782;BME280;32541;46.298;11.506;2023-03-25T06:58:13;88903.88;;;7.08;93.56
46782;BME280;32541;46.298;11.506;2023-03-25T07:00:38;88910.78;;;7.19;94.29
46782;BME280;32541;46.298;11.506;2023-03-25T07:03:04;88907.06;;;7.24;93.66
46782;BME280;32541;46.298;11.506;2023-03-25T07:05:29;88907.31;;;7.28;93.70
46782;BME280;32541;46.298;11.506;2023-03-25T07:07:55;88911.91;;;7.16;94.58
46782;BME280;32541;46.298;11.506;2023-03-25T07:10:20;88911.47;;;7.10;94.94
46782;BME280;32541;46.298;11.506;2023-03-25T07:12:45;88915.81;;;7.03;95.03
46782;BME280;32541;46.298;11.506;2023-03-25T07:15:11;88909.13;;;6.87;95.53
46782;BME280;32541;46.298;11.506;2023-03-25T07:17:36;88916.91;;;6.81;97.11
46782;BME280;32541;46.298;11.506;2023-03-25T07:20:04;88913.75;;;6.85;96.60
46782;BME280;32541;46.298;11.506;2023-03-25T07:22:30;88918.63;;;6.86;96.51
46782;BME280;32541;46.298;11.506;2023-03-25T07:24:55;88914.19;;;6.91;96.92
46782;BME280;32541;46.298;11.506;2023-03-25T07:27:23;88918.41;;;7.20;95.01
46782;BME280;32541;46.298;11.506;2023-03-25T07:29:48;88918.56;;;7.32;94.01
46782;BME280;32541;46.298;11.506;2023-03-25T07:32:13;88914.53;;;7.52;94.76
46782;BME280;32541;46.298;11.506;2023-03-25T07:34:39;88921.03;;;7.57;94.27
46782;BME280;32541;46.298;11.506;2023-03-25T07:37:05;88927.75;;;7.94;91.84
46782;BME280;32541;46.298;11.506;2023-03-25T07:39:32;88921.59;;;8.53;88.64
46782;BME280;32541;46.298;11.506;2023-03-25T07:41:57;88925.09;;;9.06;86.95
46782;BME280;32541;46.298;11.506;2023-03-25T07:44:23;88929.28;;;9.59;85.15
46782;BME280;32541;46.298;11.506;2023-03-25T07:46:48;88922.38;;;10.56;79.25
46782;BME280;32541;46.298;11.506;2023-03-25T07:49:14;88920.34;;;11.38;74.42
46782;BME280;32541;46.298;11.506;2023-03-25T07:51:41;88932.06;;;11.85;72.87
46782;BME280;32541;46.298;11.506;2023-03-25T07:54:06;88925.81;;;12.21;70.14
46782;BME280;32541;46.298;11.506;2023-03-25T07:56:32;88929.34;;;11.38;68.25
46782;BME280;32541;46.298;11.506;2023-03-25T07:58:57;88927.19;;;11.48;69.78
46782;BME280;32541;46.298;11.506;2023-03-25T08:01:22;88929.22;;;11.48;70.19
46782;BME280;32541;46.298;11.506;2023-03-25T08:03:48;88936.59;;;10.64;72.52
46782;BME280;32541;46.298;11.506;2023-03-25T08:06:13;88936.16;;;10.91;71.56
46782;BME280;32541;46.298;11.506;2023-03-25T08:08:39;88932.94;;;11.06;68.58
46782;BME280;32541;46.298;11.506;2023-03-25T08:11:04;88935.69;;;11.29;69.40
46782;BME280;32541;46.298;11.506;2023-03-25T08:13:30;88928.25;;;11.43;68.76
46782;BME280;32541;46.298;11.506;2023-03-25T08:15:58;88927.09;;;12.32;68.72
46782;BME280;32541;46.298;11.506;2023-03-25T08:18:24;88934.25;;;11.28;66.45
46782;BME280;32541;46.298;11.506;2023-03-25T08:20:50;88927.97;;;10.46;68.60
46782;BME280;32541;46.298;11.506;2023-03-25T08:23:17;88932.59;;;9.78;73.00
46782;BME280;32541;46.298;11.506;2023-03-25T08:25:45;88926.69;;;10.15;70.67
46782;BME280;32541;46.298;11.506;2023-03-25T08:28:14;88927.28;;;10.69;69.43
46782;BME280;32541;46.298;11.506;2023-03-25T08:30:42;88925.38;;;11.53;65.40
46782;BME280;32541;46.298;11.506;2023-03-25T08:33:08;88936.91;;;11.98;63.15
46782;BME280;32541;46.298;11.506;2023-03-25T08:35:35;88937.06;;;12.25;61.99
46782;BME280;32541;46.298;11.506;2023-03-25T08:38:01;88933.09;;;12.78;60.09
46782;BME280;32541;46.298;11.506;2023-03-25T08:40:33;88933.19;;;12.80;60.49
46782;BME280;32541;46.298;11.506;2023-03-25T08:42:58;88933.56;;;11.99;60.06
46782;BME280;32541;46.298;11.506;2023-03-25T08:45:24;88926.22;;;11.44;59.69
46782;BME280;32541;46.298;11.506;2023-03-25T08:47:50;88935.09;;;11.31;61.55
46782;BME280;32541;46.298;11.506;2023-03-25T08:50:15;88932.06;;;11.85;61.33
46782;BME280;32541;46.298;11.506;2023-03-25T08:52:41;88938.75;;;12.18;60.08
46782;BME280;32541;46.298;11.506;2023-03-25T08:55:06;88936.41;;;12.38;60.33
46782;BME280;32541;46.298;11.506;2023-03-25T08:57:36;88945.31;;;12.50;57.73
46782;BME280;32541;46.298;11.506;2023-03-25T09:00:03;88939.44;;;12.56;54.97
46782;BME280;32541;46.298;11.506;2023-03-25T09:02:36;88926.63;;;12.74;55.30
46782;BME280;32541;46.298;11.506;2023-03-25T09:05:01;88931.50;;;12.62;54.72
46782;BME280;32541;46.298;11.506;2023-03-25T09:07:28;88943.59;;;12.43;53.66
46782;BME280;32541;46.298;11.506;2023-03-25T09:09:54;88931.59;;;12.39;51.43
46782;BME280;32541;46.298;11.506;2023-03-25T09:12:19;88939.59;;;11.84;52.92
46782;BME280;32541;46.298;11.506;2023-03-25T09:14:45;88936.38;;;11.53;53.51
46782;BME280;32541;46.298;11.506;2023-03-25T09:17:10;88938.84;;;12.20;54.96
46782;BME280;32541;46.298;11.506;2023-03-25T09:19:36;88937.72;;;12.37;49.10
46782;BME280;32541;46.298;11.506;2023-03-25T09:22:02;88936.63;;;12.17;48.89
46782;BME280;32541;46.298;11.506;2023-03-25T09:24:27;88930.38;;;12.42;49.65
46782;BME280;32541;46.298;11.506;2023-03-25T09:26:53;88927.41;;;12.63;49.08
46782;BME280;32541;46.298;11.506;2023-03-25T09:29:18;88915.16;;;12.66;47.47
46782;BME280;32541;46.298;11.506;2023-03-25T09:31:44;88916.88;;;12.59;45.95
46782;BME280;32541;46.298;11.506;2023-03-25T09:34:09;88907.75;;;12.06;46.18
46782;BME280;32541;46.298;11.506;2023-03-25T09:36:35;88912.28;;;11.65;46.48
46782;BME280;32541;46.298;11.506;2023-03-25T09:39:01;88911.00;;;11.54;47.12
46782;BME280;32541;46.298;11.506;2023-03-25T09:44:18;88911.88;;;12.31;42.53
46782;BME280;32541;46.298;11.506;2023-03-25T09:46:46;88914.44;;;13.04;45.44
46782;BME280;32541;46.298;11.506;2023-03-25T09:49:19;88904.28;;;13.48;37.64
46782;BME280;32541;46.298;11.506;2023-03-25T09:51:46;88897.66;;;14.09;39.15
46782;BME280;32541;46.298;11.506;2023-03-25T09:54:19;88911.34;;;14.64;38.51
46782;BME280;32541;46.298;11.506;2023-03-25T09:56:47;88895.38;;;14.78;35.33
46782;BME280;32541;46.298;11.506;2023-03-25T09:59:17;88886.56;;;14.97;35.55
46782;BME280;32541;46.298;11.506;2023-03-25T10:06:57;88898.72;;;15.37;33.23
46782;BME280;32541;46.298;11.506;2023-03-25T10:15:27;88892.69;;;16.74;31.29
46782;BME280;32541;46.298;11.506;2023-03-25T10:23:45;88920.22;;;15.52;36.44
46782;BME280;32541;46.298;11.506;2023-03-25T10:26:26;88908.25;;;13.17;40.74
46782;BME280;32541;46.298;11.506;2023-03-25T10:29:00;88910.84;;;13.02;40.46
46782;BME280;32541;46.298;11.506;2023-03-25T10:31:30;88913.22;;;13.07;40.69
46782;BME280;32541;46.298;11.506;2023-03-25T10:34:13;88897.09;;;12.38;39.32
46782;BME280;32541;46.298;11.506;2023-03-25T10:36:50;88903.16;;;12.22;41.03
46782;BME280;32541;46.298;11.506;2023-03-25T10:39:21;88910.66;;;12.59;37.11
46782;BME280;32541;46.298;11.506;2023-03-25T10:41:53;88918.22;;;12.58;36.04
46782;BME280;32541;46.298;11.506;2023-03-25T10:44:20;88911.81;;;12.67;36.46
46782;BME280;32541;46.298;11.506;2023-03-25T10:46:55;88911.72;;;13.31;35.22
46782;BME280;32541;46.298;11.506;2023-03-25T10:49:26;88905.25;;;13.95;35.60
46782;BME280;32541;46.298;11.506;2023-03-25T10:51:53;88894.69;;;14.05;34.80
46782;BME280;32541;46.298;11.506;2023-03-25T10:54:23;88892.06;;;14.36;34.95
46782;BME280;32541;46.298;11.506;2023-03-25T10:56:55;88895.75;;;14.86;32.23
46782;BME280;32541;46.298;11.506;2023-03-25T11:01:54;88873.91;;;15.54;32.55
46782;BME280;32541;46.298;11.506;2023-03-25T11:04:24;88872.78;;;16.10;31.94
46782;BME280;32541;46.298;11.506;2023-03-25T11:06:56;88857.84;;;16.35;30.35
46782;BME280;32541;46.298;11.506;2023-03-25T11:09:26;88864.09;;;15.85;29.05
46782;BME280;32541;46.298;11.506;2023-03-25T11:11:54;88863.97;;;14.87;31.84
46782;BME280;32541;46.298;11.506;2023-03-25T11:14:26;88879.84;;;14.71;32.87
46782;BME280;32541;46.298;11.506;2023-03-25T11:17:03;88876.72;;;14.94;33.58
46782;BME280;32541;46.298;11.506;2023-03-25T11:19:38;88880.78;;;15.07;30.98
46782;BME280;32541;46.298;11.506;2023-03-25T11:22:14;88872.03;;;14.96;29.48
46782;BME280;32541;46.298;11.506;2023-03-25T11:24:47;88860.75;;;14.92;32.48
46782;BME280;32541;46.298;11.506;2023-03-25T11:27:22;88866.03;;;15.18;32.73
46782;BME280;32541;46.298;11.506;2023-03-25T11:29:56;88862.03;;;15.52;32.93
46782;BME280;32541;46.298;11.506;2023-03-25T11:32:36;88860.59;;;15.04;33.07
46782;BME280;32541;46.298;11.506;2023-03-25T11:35:07;88871.22;;;14.49;34.66
46782;BME280;32541;46.298;11.506;2023-03-25T11:37:44;88865.56;;;13.75;34.74
46782;BME280;32541;46.298;11.506;2023-03-25T11:40:16;88857.72;;;13.99;35.31
46782;BME280;32541;46.298;11.506;2023-03-25T11:42:43;88864.53;;;14.25;33.88
46782;BME280;32541;46.298;11.506;2023-03-25T11:47:45;88877.22;;;13.87;34.31
46782;BME280;32541;46.298;11.506;2023-03-25T11:50:36;88881.34;;;14.15;34.91
46782;BME280;32541;46.298;11.506;2023-03-25T11:53:03;88880.91;;;13.91;34.05
46782;BME280;32541;46.298;11.506;2023-03-25T11:55:34;88897.94;;;13.59;33.52
46782;BME280;32541;46.298;11.506;2023-03-25T11:58:01;88898.63;;;13.46;33.73
46782;BME280;32541;46.298;11.506;2023-03-25T12:00:39;88906.22;;;13.18;33.55
46782;BME280;32541;46.298;11.506;2023-03-25T12:03:18;88901.66;;;12.97;34.36
46782;BME280;32541;46.298;11.506;2023-03-25T12:05:57;88898.22;;;12.71;32.67
46782;BME280;32541;46.298;11.506;2023-03-25T12:08:23;88912.84;;;12.49;33.02
46782;BME280;32541;46.298;11.506;2023-03-25T12:10:56;88921.25;;;11.89;32.17
46782;BME280;32541;46.298;11.506;2023-03-25T12:14:12;88895.56;;;11.61;35.08
46782;BME280;32541;46.298;11.506;2023-03-25T12:19:26;88908.66;;;11.02;36.94
46782;BME280;32541;46.298;11.506;2023-03-25T12:22:11;88911.50;;;10.70;36.94
46782;BME280;32541;46.298;11.506;2023-03-25T12:33:15;88960.50;;;10.62;40.65
46782;BME280;32541;46.298;11.506;2023-03-25T12:36:07;88965.06;;;10.03;43.72
46782;BME280;32541;46.298;11.506;2023-03-25T12:38:52;88944.50;;;10.04;45.28
46782;BME280;32541;46.298;11.506;2023-03-25T12:41:30;88914.19;;;10.35;47.62
46782;BME280;32541;46.298;11.506;2023-03-25T12:44:05;88918.47;;;10.94;48.11
46782;BME280;32541;46.298;11.506;2023-03-25T12:52:09;88908.78;;;12.89;41.15
46782;BME280;32541;46.298;11.506;2023-03-25T13:00:10;88879.34;;;14.02;42.43
46782;BME280;32541;46.298;11.506;2023-03-25T13:03:08;88877.63;;;14.38;38.73
46782;BME280;32541;46.298;11.506;2023-03-25T13:08:42;88871.66;;;15.04;36.25
46782;BME280;32541;46.298;11.506;2023-03-25T13:11:29;88861.81;;;15.32;37.57
46782;BME280;32541;46.298;11.506;2023-03-25T13:14:00;88861.28;;;15.51;36.85
46782;BME280;32541;46.298;11.506;2023-03-25T13:16:30;88849.66;;;15.71;36.49
46782;BME280;32541;46.298;11.506;2023-03-25T13:19:21;88835.47;;;15.80;35.70
46782;BME280;32541;46.298;11.506;2023-03-25T13:21:55;88842.16;;;15.91;34.34
46782;BME280;32541;46.298;11.506;2023-03-25T13:24:34;88838.03;;;15.92;33.42
46782;BME280;32541;46.298;11.506;2023-03-25T13:27:03;88841.47;;;16.08;33.79
46782;BME280;32541;46.298;11.506;2023-03-25T13:29:42;88825.94;;;16.36;32.63
46782;BME280;32541;46.298;11.506;2023-03-25T13:32:18;88833.09;;;16.77;33.65
46782;BME280;32541;46.298;11.506;2023-03-25T13:34:58;88824.31;;;16.47;29.03
46782;BME280;32541;46.298;11.506;2023-03-25T13:37:37;88819.44;;;16.83;32.53
46782;BME280;32541;46.298;11.506;2023-03-25T13:45:19;88824.44;;;16.86;30.50
46782;BME280;32541;46.298;11.506;2023-03-25T13:48:06;88804.53;;;16.92;29.90
46782;BME280;32541;46.298;11.506;2023-03-25T13:50:35;88825.81;;;15.81;28.44
46782;BME280;32541;46.298;11.506;2023-03-25T13:53:05;88834.69;;;14.97;29.65
46782;BME280;32541;46.298;11.506;2023-03-25T13:55:38;88825.34;;;15.53;31.52
46782;BME280;32541;46.298;11.506;2023-03-25T14:12:31;88825.09;;;16.49;29.30
46782;BME280;32541;46.298;11.506;2023-03-25T14:15:02;88828.66;;;16.52;28.51
46782;BME280;32541;46.298;11.506;2023-03-25T14:17:29;88827.22;;;16.86;30.36
46782;BME280;32541;46.298;11.506;2023-03-25T14:19:57;88833.97;;;16.81;28.73
46782;BME280;32541;46.298;11.506;2023-03-25T14:22:29;88825.84;;;16.87;28.25
46782;BME280;32541;46.298;11.506;2023-03-25T14:24:56;88814.63;;;16.83;29.41
46782;BME280;32541;46.298;11.506;2023-03-25T14:27:26;88807.00;;;16.31;29.06
46782;BME280;32541;46.298;11.506;2023-03-25T14:32:47;88821.31;;;16.58;29.53
46782;BME280;32541;46.298;11.506;2023-03-25T14:43:36;88821.75;;;16.18;28.83
46782;BME280;32541;46.298;11.506;2023-03-25T14:48:36;88826.59;;;16.17;28.23
46782;BME280;32541;46.298;11.506;2023-03-25T14:53:58;88833.66;;;16.38;28.35
46782;BME280;32541;46.298;11.506;2023-03-25T14:56:34;88824.44;;;16.33;28.15
46782;BME280;32541;46.298;11.506;2023-03-25T14:59:07;88829.78;;;16.45;27.87
46782;BME280;32541;46.298;11.506;2023-03-25T15:01:35;88817.84;;;16.07;27.22
46782;BME280;32541;46.298;11.506;2023-03-25T15:06:36;88815.31;;;16.48;26.08
46782;BME280;32541;46.298;11.506;2023-03-25T15:09:06;88809.19;;;15.48;27.65
46782;BME280;32541;46.298;11.506;2023-03-25T15:11:36;88814.19;;;15.85;28.29